sensor_id;sensor_type;location;lat;lon;timestamp;P1;durP1;ratioP1;P2;durP2;ratioP2
11334;SDS011;5722;42.620;23.374;2023-04-28T00:01:41;3.40;;;2.40;;
11334;SDS011;5722;42.620;23.374;2023-04-28T00:07:06;4.67;;;2.60;;
11334;SDS011;5722;42.620;23.374;2023-04-28T00:09:46;4.23;;;2.97;;
11334;SDS011;5722;42.620;23.374;2023-04-28T00:12:17;6.13;;;2.80;;
11334;SDS011;5722;42.620;23.374;2023-04-28T00:15:02;4.67;;;2.70;;
11334;SDS011;5722;42.620;23.374;2023-04-28T00:17:48;5.30;;;2.50;;
11334;SDS011;5722;42.620;23.374;2023-04-28T00:20:28;3.40;;;2.40;;
11334;SDS011;5722;42.620;23.374;2023-04-28T00:23:05;4.30;;;2.80;;
11334;SDS011;5722;42.620;23.374;2023-04-28T00:25:54;5.27;;;2.50;;
11334;SDS011;5722;42.620;23.374;2023-04-28T00:28:29;4.33;;;2.53;;
11334;SDS011;5722;42.620;23.374;2023-04-28T00:31:18;3.23;;;2.57;;
11334;SDS011;5722;42.620;23.374;2023-04-28T00:33:49;4.13;;;2.63;;
11334;SDS011;5722;42.620;23.374;2023-04-28T00:36:33;3.30;;;2.30;;
11334;SDS011;5722;42.620;23.374;2023-04-28T00:39:42;3.83;;;2.60;;
11334;SDS011;5722;42.620;23.374;2023-04-28T00:42:18;6.60;;;2.70;;
11334;SDS011;5722;42.620;23.374;2023-04-28T00:44:55;3.83;;;2.90;;
11334;SDS011;5722;42.620;23.374;2023-04-28T00:47:32;4.93;;;2.60;;
11334;SDS011;5722;42.620;23.374;2023-04-28T00:50:08;4.40;;;2.23;;
11334;SDS011;5722;42.620;23.374;2023-04-28T00:52:46;3.60;;;2.40;;
11334;SDS011;5722;42.620;23.374;2023-04-28T00:55:21;4.97;;;2.60;;
11334;SDS011;5722;42.620;23.374;2023-04-28T00:58:08;4.57;;;2.67;;
11334;SDS011;5722;42.620;23.374;2023-04-28T01:00:47;3.00;;;2.70;;
11334;SDS011;5722;42.620;23.374;2023-04-28T01:03:26;5.00;;;2.63;;
11334;SDS011;5722;42.620;23.374;2023-04-28T01:06:08;8.07;;;2.90;;
11334;SDS011;5722;42.620;23.374;2023-04-28T01:08:41;4.50;;;2.30;;
11334;SDS011;5722;42.620;23.374;2023-04-28T01:11:19;3.47;;;2.60;;
11334;SDS011;5722;42.620;23.374;2023-04-28T01:14:00;4.23;;;2.90;;
11334;SDS011;5722;42.620;23.374;2023-04-28T01:16:45;5.23;;;2.63;;
11334;SDS011;5722;42.620;23.374;2023-04-28T01:19:18;5.07;;;2.93;;
11334;SDS011;5722;42.620;23.374;2023-04-28T01:22:01;6.93;;;2.87;;
11334;SDS011;5722;42.620;23.374;2023-04-28T01:24:46;4.40;;;2.70;;
11334;SDS011;5722;42.620;23.374;2023-04-28T01:27:28;3.97;;;2.80;;
11334;SDS011;5722;42.620;23.374;2023-04-28T01:30:17;3.87;;;2.70;;
11334;SDS011;5722;42.620;23.374;2023-04-28T01:36:01;4.10;;;2.63;;
11334;SDS011;5722;42.620;23.374;2023-04-28T01:38:50;4.70;;;2.63;;
11334;SDS011;5722;42.620;23.374;2023-04-28T01:47:08;4.47;;;2.80;;
11334;SDS011;5722;42.620;23.374;2023-04-28T01:49:38;3.20;;;2.73;;
11334;SDS011;5722;42.620;23.374;2023-04-28T01:52:19;3.40;;;2.73;;
11334;SDS011;5722;42.620;23.374;2023-04-28T01:54:54;5.10;;;2.83;;
11334;SDS011;5722;42.620;23.374;2023-04-28T01:57:29;4.63;;;2.53;;
11334;SDS011;5722;42.620;23.374;2023-04-28T02:00:20;5.97;;;2.70;;
11334;SDS011;5722;42.620;23.374;2023-04-28T02:11:38;5.73;;;2.80;;
11334;SDS011;5722;42.620;23.374;2023-04-28T02:14:11;3.00;;;2.70;;
11334;SDS011;5722;42.620;23.374;2023-04-28T02:16:56;6.00;;;2.90;;
11334;SDS011;5722;42.620;23.374;2023-04-28T02:19:35;4.13;;;2.77;;
11334;SDS011;5722;42.620;23.374;2023-04-28T02:22:19;7.20;;;2.70;;
11334;SDS011;5722;42.620;23.374;2023-04-28T02:24:51;4.97;;;2.73;;
11334;SDS011;5722;42.620;23.374;2023-04-28T02:27:29;5.30;;;2.90;;
11334;SDS011;5722;42.620;23.374;2023-04-28T02:30:06;3.40;;;2.70;;
11334;SDS011;5722;42.620;23.374;2023-04-28T02:32:39;5.63;;;2.80;;
11334;SDS011;5722;42.620;23.374;2023-04-28T02:35:29;6.07;;;2.90;;
11334;SDS011;5722;42.620;23.374;2023-04-28T02:38:12;5.73;;;2.90;;
11334;SDS011;5722;42.620;23.374;2023-04-28T02:40:46;3.77;;;2.73;;
11334;SDS011;5722;42.620;23.374;2023-04-28T02:48:57;4.33;;;2.77;;
11334;SDS011;5722;42.620;23.374;2023-04-28T02:51:37;5.70;;;2.97;;
11334;SDS011;5722;42.620;23.374;2023-04-28T02:54:09;5.03;;;2.63;;
11334;SDS011;5722;42.620;23.374;2023-04-28T02:56:45;3.63;;;2.80;;
11334;SDS011;5722;42.620;23.374;2023-04-28T02:59:18;5.00;;;2.80;;
11334;SDS011;5722;42.620;23.374;2023-04-28T03:01:58;5.40;;;2.90;;
11334;SDS011;5722;42.620;23.374;2023-04-28T03:04:47;8.17;;;2.63;;
11334;SDS011;5722;42.620;23.374;2023-04-28T03:07:30;3.37;;;2.63;;
11334;SDS011;5722;42.620;23.374;2023-04-28T03:10:09;3.97;;;2.60;;
11334;SDS011;5722;42.620;23.374;2023-04-28T03:12:59;3.80;;;2.60;;
11334;SDS011;5722;42.620;23.374;2023-04-28T03:15:41;6.27;;;2.70;;
11334;SDS011;5722;42.620;23.374;2023-04-28T03:18:14;4.50;;;2.77;;
11334;SDS011;5722;42.620;23.374;2023-04-28T03:21:02;5.23;;;2.60;;
11334;SDS011;5722;42.620;23.374;2023-04-28T03:23:42;4.43;;;2.87;;
11334;SDS011;5722;42.620;23.374;2023-04-28T03:26:28;9.53;;;2.77;;
11334;SDS011;5722;42.620;23.374;2023-04-28T03:29:08;4.00;;;2.70;;
11334;SDS011;5722;42.620;23.374;2023-04-28T03:31:53;4.67;;;2.60;;
11334;SDS011;5722;42.620;23.374;2023-04-28T03:34:28;5.63;;;2.50;;
11334;SDS011;5722;42.620;23.374;2023-04-28T03:37:16;4.40;;;2.57;;
11334;SDS011;5722;42.620;23.374;2023-04-28T03:40:04;5.43;;;2.90;;
11334;SDS011;5722;42.620;23.374;2023-04-28T03:42:36;5.23;;;2.50;;
11334;SDS011;5722;42.620;23.374;2023-04-28T03:45:19;5.73;;;2.73;;
11334;SDS011;5722;42.620;23.374;2023-04-28T03:47:48;5.60;;;2.90;;
11334;SDS011;5722;42.620;23.374;2023-04-28T03:56:09;5.07;;;2.80;;
11334;SDS011;5722;42.620;23.374;2023-04-28T03:58:39;4.60;;;2.77;;
11334;SDS011;5722;42.620;23.374;2023-04-28T04:01:19;4.23;;;2.70;;
11334;SDS011;5722;42.620;23.374;2023-04-28T04:04:03;5.20;;;2.53;;
11334;SDS011;5722;42.620;23.374;2023-04-28T04:06:47;4.13;;;2.60;;
11334;SDS011;5722;42.620;23.374;2023-04-28T04:09:26;3.93;;;2.53;;
11334;SDS011;5722;42.620;23.374;2023-04-28T04:50:39;5.97;;;2.80;;
11334;SDS011;5722;42.620;23.374;2023-04-28T04:56:25;4.67;;;2.70;;
11334;SDS011;5722;42.620;23.374;2023-04-28T05:02:09;4.90;;;2.50;;
11334;SDS011;5722;42.620;23.374;2023-04-28T05:05:00;4.47;;;2.50;;
11334;SDS011;5722;42.620;23.374;2023-04-28T06:56:37;6.70;;;2.77;;
11334;SDS011;5722;42.620;23.374;2023-04-28T06:59:20;7.17;;;3.60;;
11334;SDS011;5722;42.620;23.374;2023-04-28T07:02:08;10.80;;;3.20;;
11334;SDS011;5722;42.620;23.374;2023-04-28T07:07:55;4.40;;;2.93;;
11334;SDS011;5722;42.620;23.374;2023-04-28T07:10:40;4.07;;;3.10;;
11334;SDS011;5722;42.620;23.374;2023-04-28T07:25:05;5.13;;;2.90;;
11334;SDS011;5722;42.620;23.374;2023-04-28T07:27:43;5.00;;;3.00;;
11334;SDS011;5722;42.620;23.374;2023-04-28T07:33:17;4.03;;;3.00;;
11334;SDS011;5722;42.620;23.374;2023-04-28T07:35:59;7.87;;;3.40;;
11334;SDS011;5722;42.620;23.374;2023-04-28T07:38:44;5.23;;;2.90;;
11334;SDS011;5722;42.620;23.374;2023-04-28T07:41:39;6.97;;;3.13;;
11334;SDS011;5722;42.620;23.374;2023-04-28T07:44:16;5.53;;;3.00;;
11334;SDS011;5722;42.620;23.374;2023-04-28T07:46:58;4.60;;;2.83;;
11334;SDS011;5722;42.620;23.374;2023-04-28T07:49:47;5.10;;;2.80;;
11334;SDS011;5722;42.620;23.374;2023-04-28T07:52:32;6.43;;;2.70;;
11334;SDS011;5722;42.620;23.374;2023-04-28T07:55:17;6.93;;;2.67;;
11334;SDS011;5722;42.620;23.374;2023-04-28T08:07:14;4.73;;;2.70;;
11334;SDS011;5722;42.620;23.374;2023-04-28T08:09:54;7.30;;;3.10;;
11334;SDS011;5722;42.620;23.374;2023-04-28T08:12:35;5.10;;;2.53;;
11334;SDS011;5722;42.620;23.374;2023-04-28T08:15:18;6.67;;;2.93;;
11334;SDS011;5722;42.620;23.374;2023-04-28T08:17:52;3.97;;;2.60;;
11334;SDS011;5722;42.620;23.374;2023-04-28T08:20:36;5.27;;;2.83;;
11334;SDS011;5722;42.620;23.374;2023-04-28T08:46:29;6.47;;;2.70;;
11334;SDS011;5722;42.620;23.374;2023-04-28T08:49:06;5.30;;;2.93;;
11334;SDS011;5722;42.620;23.374;2023-04-28T08:51:48;4.43;;;2.43;;
11334;SDS011;5722;42.620;23.374;2023-04-28T08:54:28;6.93;;;2.93;;
11334;SDS011;5722;42.620;23.374;2023-04-28T08:57:06;4.87;;;3.00;;
11334;SDS011;5722;42.620;23.374;2023-04-28T08:59:49;4.53;;;2.80;;
11334;SDS011;5722;42.620;23.374;2023-04-28T10:03:20;3.07;;;2.37;;
11334;SDS011;5722;42.620;23.374;2023-04-28T10:06:14;5.37;;;2.60;;
11334;SDS011;5722;42.620;23.374;2023-04-28T10:09:05;3.70;;;2.30;;
11334;SDS011;5722;42.620;23.374;2023-04-28T10:11:52;3.50;;;2.37;;
11334;SDS011;5722;42.620;23.374;2023-04-28T10:14:40;4.67;;;2.50;;
11334;SDS011;5722;42.620;23.374;2023-04-28T10:17:27;3.00;;;2.33;;
11334;SDS011;5722;42.620;23.374;2023-04-28T10:23:21;2.73;;;2.20;;
11334;SDS011;5722;42.620;23.374;2023-04-28T10:26:03;2.83;;;2.30;;
11334;SDS011;5722;42.620;23.374;2023-04-28T10:29:03;3.27;;;2.40;;
11334;SDS011;5722;42.620;23.374;2023-04-28T10:34:47;3.00;;;2.20;;
11334;SDS011;5722;42.620;23.374;2023-04-28T10:38:07;3.27;;;2.20;;
11334;SDS011;5722;42.620;23.374;2023-04-28T11:32:24;4.23;;;2.00;;
11334;SDS011;5722;42.620;23.374;2023-04-28T11:35:11;2.97;;;1.80;;
11334;SDS011;5722;42.620;23.374;2023-04-28T11:43:08;6.17;;;2.23;;
11334;SDS011;5722;42.620;23.374;2023-04-28T11:45:49;4.10;;;2.30;;
11334;SDS011;5722;42.620;23.374;2023-04-28T11:48:32;2.67;;;1.90;;
11334;SDS011;5722;42.620;23.374;2023-04-28T11:51:06;6.00;;;2.10;;
11334;SDS011;5722;42.620;23.374;2023-04-28T11:53:40;4.53;;;2.20;;
11334;SDS011;5722;42.620;23.374;2023-04-28T11:56:31;2.73;;;1.63;;
11334;SDS011;5722;42.620;23.374;2023-04-28T11:59:06;3.00;;;1.70;;
11334;SDS011;5722;42.620;23.374;2023-04-28T12:01:44;3.73;;;1.67;;
11334;SDS011;5722;42.620;23.374;2023-04-28T12:10:17;4.40;;;1.97;;
11334;SDS011;5722;42.620;23.374;2023-04-28T12:12:50;5.07;;;2.03;;
11334;SDS011;5722;42.620;23.374;2023-04-28T12:15:39;3.00;;;1.90;;
11334;SDS011;5722;42.620;23.374;2023-04-28T12:18:25;6.00;;;2.00;;
11334;SDS011;5722;42.620;23.374;2023-04-28T12:21:18;10.73;;;2.37;;
11334;SDS011;5722;42.620;23.374;2023-04-28T12:24:02;2.57;;;1.60;;
11334;SDS011;5722;42.620;23.374;2023-04-28T12:48:43;2.93;;;1.70;;
11334;SDS011;5722;42.620;23.374;2023-04-28T12:51:21;3.33;;;1.90;;
11334;SDS011;5722;42.620;23.374;2023-04-28T12:53:55;4.57;;;2.07;;
11334;SDS011;5722;42.620;23.374;2023-04-28T12:56:41;5.77;;;1.90;;
11334;SDS011;5722;42.620;23.374;2023-04-28T13:05:16;5.63;;;2.10;;
11334;SDS011;5722;42.620;23.374;2023-04-28T13:08:12;3.40;;;1.90;;
11334;SDS011;5722;42.620;23.374;2023-04-28T13:11:16;2.40;;;1.60;;
11334;SDS011;5722;42.620;23.374;2023-04-28T13:14:20;8.67;;;2.07;;
11334;SDS011;5722;42.620;23.374;2023-04-28T13:17:09;4.13;;;1.83;;
11334;SDS011;5722;42.620;23.374;2023-04-28T13:19:42;4.97;;;2.17;;
11334;SDS011;5722;42.620;23.374;2023-04-28T13:39:58;5.80;;;1.93;;
11334;SDS011;5722;42.620;23.374;2023-04-28T13:42:39;5.40;;;1.80;;
11334;SDS011;5722;42.620;23.374;2023-04-28T13:45:25;5.47;;;1.97;;
11334;SDS011;5722;42.620;23.374;2023-04-28T13:48:01;3.00;;;1.83;;
11334;SDS011;5722;42.620;23.374;2023-04-28T13:50:45;2.93;;;1.60;;
11334;SDS011;5722;42.620;23.374;2023-04-28T13:53:32;4.17;;;2.20;;
11334;SDS011;5722;42.620;23.374;2023-04-28T13:59:15;4.00;;;2.10;;
11334;SDS011;5722;42.620;23.374;2023-04-28T14:01:57;2.78;;;1.90;;
11334;SDS011;5722;42.620;23.374;2023-04-28T14:04:30;3.22;;;1.88;;
11334;SDS011;5722;42.620;23.374;2023-04-28T14:07:08;3.05;;;1.73;;
11334;SDS011;5722;42.620;23.374;2023-04-28T14:09:49;2.38;;;1.90;;
11334;SDS011;5722;42.620;23.374;2023-04-28T14:18:08;5.00;;;1.70;;
11334;SDS011;5722;42.620;23.374;2023-04-28T14:20:50;2.58;;;1.60;;
11334;SDS011;5722;42.620;23.374;2023-04-28T14:23:27;7.82;;;2.15;;
11334;SDS011;5722;42.620;23.374;2023-04-28T14:26:11;4.68;;;1.80;;
11334;SDS011;5722;42.620;23.374;2023-04-28T14:28:59;4.10;;;2.00;;
11334;SDS011;5722;42.620;23.374;2023-04-28T14:31:42;4.30;;;1.67;;
11334;SDS011;5722;42.620;23.374;2023-04-28T14:43:30;3.55;;;2.00;;
11334;SDS011;5722;42.620;23.374;2023-04-28T14:46:13;6.72;;;2.10;;
11334;SDS011;5722;42.620;23.374;2023-04-28T14:48:58;6.60;;;2.10;;
11334;SDS011;5722;42.620;23.374;2023-04-28T14:51:42;18.08;;;2.47;;
11334;SDS011;5722;42.620;23.374;2023-04-28T14:54:18;4.63;;;2.22;;
11334;SDS011;5722;42.620;23.374;2023-04-28T14:57:02;2.45;;;1.88;;
11334;SDS011;5722;42.620;23.374;2023-04-28T14:59:49;6.97;;;2.05;;
11334;SDS011;5722;42.620;23.374;2023-04-28T15:02:21;4.18;;;1.90;;
11334;SDS011;5722;42.620;23.374;2023-04-28T15:07:54;2.85;;;1.77;;
11334;SDS011;5722;42.620;23.374;2023-04-28T15:10:45;4.88;;;1.98;;
11334;SDS011;5722;42.620;23.374;2023-04-28T15:13:26;3.72;;;1.98;;
11334;SDS011;5722;42.620;23.374;2023-04-28T15:16:04;4.57;;;2.10;;
11334;SDS011;5722;42.620;23.374;2023-04-28T15:18:40;2.45;;;2.05;;
11334;SDS011;5722;42.620;23.374;2023-04-28T15:21:15;4.43;;;2.05;;
11334;SDS011;5722;42.620;23.374;2023-04-28T15:23:48;3.63;;;1.88;;
11334;SDS011;5722;42.620;23.374;2023-04-28T15:26:21;5.25;;;2.10;;
11334;SDS011;5722;42.620;23.374;2023-04-28T15:28:53;4.20;;;2.00;;
11334;SDS011;5722;42.620;23.374;2023-04-28T15:31:27;3.55;;;2.20;;
11334;SDS011;5722;42.620;23.374;2023-04-28T15:34:08;4.07;;;2.03;;
11334;SDS011;5722;42.620;23.374;2023-04-28T15:36:41;4.38;;;2.00;;
11334;SDS011;5722;42.620;23.374;2023-04-28T15:39:20;3.92;;;1.77;;
11334;SDS011;5722;42.620;23.374;2023-04-28T15:41:50;4.63;;;2.20;;
11334;SDS011;5722;42.620;23.374;2023-04-28T15:44:35;6.68;;;2.15;;
11334;SDS011;5722;42.620;23.374;2023-04-28T15:47:17;4.30;;;1.88;;
11334;SDS011;5722;42.620;23.374;2023-04-28T15:49:49;2.95;;;1.90;;
11334;SDS011;5722;42.620;23.374;2023-04-28T15:52:24;3.40;;;2.10;;
11334;SDS011;5722;42.620;23.374;2023-04-28T15:55:01;4.72;;;2.22;;
11334;SDS011;5722;42.620;23.374;2023-04-28T15:57:33;4.18;;;2.00;;
11334;SDS011;5722;42.620;23.374;2023-04-28T16:00:04;4.28;;;2.30;;
11334;SDS011;5722;42.620;23.374;2023-04-28T16:02:37;2.60;;;2.08;;
11334;SDS011;5722;42.620;23.374;2023-04-28T16:05:06;4.95;;;2.17;;
11334;SDS011;5722;42.620;23.374;2023-04-28T16:07:35;3.13;;;2.28;;
11334;SDS011;5722;42.620;23.374;2023-04-28T16:10:21;4.93;;;2.08;;
11334;SDS011;5722;42.620;23.374;2023-04-28T16:13:04;7.18;;;2.60;;
11334;SDS011;5722;42.620;23.374;2023-04-28T16:16:00;5.05;;;2.15;;
11334;SDS011;5722;42.620;23.374;2023-04-28T16:21:40;4.82;;;2.13;;
11334;SDS011;5722;42.620;23.374;2023-04-28T16:26:47;3.55;;;2.40;;
11334;SDS011;5722;42.620;23.374;2023-04-28T16:29:20;7.07;;;2.35;;
11334;SDS011;5722;42.620;23.374;2023-04-28T16:31:58;3.70;;;2.28;;
11334;SDS011;5722;42.620;23.374;2023-04-28T16:34:31;5.05;;;2.40;;
11334;SDS011;5722;42.620;23.374;2023-04-28T16:37:05;4.63;;;2.20;;
11334;SDS011;5722;42.620;23.374;2023-04-28T16:39:46;3.60;;;2.20;;
11334;SDS011;5722;42.620;23.374;2023-04-28T16:42:30;3.92;;;2.50;;
11334;SDS011;5722;42.620;23.374;2023-04-28T16:45:02;4.40;;;2.40;;
11334;SDS011;5722;42.620;23.374;2023-04-28T16:47:39;5.63;;;2.35;;
11334;SDS011;5722;42.620;23.374;2023-04-28T16:50:13;4.47;;;2.40;;
11334;SDS011;5722;42.620;23.374;2023-04-28T16:52:47;4.97;;;2.53;;
11334;SDS011;5722;42.620;23.374;2023-04-28T16:55:18;5.72;;;2.55;;
11334;SDS011;5722;42.620;23.374;2023-04-28T16:58:10;6.25;;;2.17;;
11334;SDS011;5722;42.620;23.374;2023-04-28T17:00:51;2.78;;;2.10;;
11334;SDS011;5722;42.620;23.374;2023-04-28T17:03:38;3.73;;;2.37;;
11334;SDS011;5722;42.620;23.374;2023-04-28T17:06:25;7.83;;;2.70;;
11334;SDS011;5722;42.620;23.374;2023-04-28T17:17:35;3.73;;;2.63;;
11334;SDS011;5722;42.620;23.374;2023-04-28T17:20:20;7.27;;;3.10;;
11334;SDS011;5722;42.620;23.374;2023-04-28T17:23:36;6.93;;;3.03;;
11334;SDS011;5722;42.620;23.374;2023-04-28T17:36:55;8.57;;;4.60;;
11334;SDS011;5722;42.620;23.374;2023-04-28T17:48:06;5.25;;;3.40;;
11334;SDS011;5722;42.620;23.374;2023-04-28T21:10:39;5.83;;;3.70;;
11334;SDS011;5722;42.620;23.374;2023-04-28T21:13:18;4.37;;;3.43;;
11334;SDS011;5722;42.620;23.374;2023-04-28T21:16:00;8.33;;;3.73;;
11334;SDS011;5722;42.620;23.374;2023-04-28T21:18:33;4.50;;;2.97;;
11334;SDS011;5722;42.620;23.374;2023-04-28T21:21:04;5.17;;;2.97;;
11334;SDS011;5722;42.620;23.374;2023-04-28T21:23:48;6.53;;;2.93;;
11334;SDS011;5722;42.620;23.374;2023-04-28T21:26:31;4.00;;;2.77;;
11334;SDS011;5722;42.620;23.374;2023-04-28T21:29:05;4.00;;;2.80;;
11334;SDS011;5722;42.620;23.374;2023-04-28T21:31:35;3.90;;;2.67;;
11334;SDS011;5722;42.620;23.374;2023-04-28T21:34:13;3.00;;;2.63;;
11334;SDS011;5722;42.620;23.374;2023-04-28T21:36:50;4.57;;;2.77;;
11334;SDS011;5722;42.620;23.374;2023-04-28T21:39:30;4.37;;;3.00;;
11334;SDS011;5722;42.620;23.374;2023-04-28T21:45:08;5.50;;;4.20;;
11334;SDS011;5722;42.620;23.374;2023-04-28T21:47:50;7.60;;;4.47;;
11334;SDS011;5722;42.620;23.374;2023-04-28T21:53:21;9.97;;;4.50;;
11334;SDS011;5722;42.620;23.374;2023-04-28T21:56:04;7.20;;;4.33;;
11334;SDS011;5722;42.620;23.374;2023-04-28T21:58:38;8.20;;;4.23;;
11334;SDS011;5722;42.620;23.374;2023-04-28T22:01:19;9.23;;;3.90;;
11334;SDS011;5722;42.620;23.374;2023-04-28T22:03:58;11.23;;;4.80;;
11334;SDS011;5722;42.620;23.374;2023-04-28T22:06:36;9.00;;;4.90;;
11334;SDS011;5722;42.620;23.374;2023-04-28T22:09:24;8.70;;;5.00;;
11334;SDS011;5722;42.620;23.374;2023-04-28T22:11:59;10.03;;;5.23;;
11334;SDS011;5722;42.620;23.374;2023-04-28T22:14:30;9.77;;;4.87;;
11334;SDS011;5722;42.620;23.374;2023-04-28T22:17:04;7.30;;;4.70;;
11334;SDS011;5722;42.620;23.374;2023-04-28T22:19:43;9.63;;;5.50;;
11334;SDS011;5722;42.620;23.374;2023-04-28T22:22:21;8.37;;;5.00;;
11334;SDS011;5722;42.620;23.374;2023-04-28T22:27:57;8.77;;;4.70;;
11334;SDS011;5722;42.620;23.374;2023-04-28T22:30:40;11.27;;;4.70;;
11334;SDS011;5722;42.620;23.374;2023-04-28T22:33:18;8.87;;;4.73;;
11334;SDS011;5722;42.620;23.374;2023-04-28T22:36:01;13.80;;;5.30;;
11334;SDS011;5722;42.620;23.374;2023-04-28T22:38:39;8.30;;;4.77;;
11334;SDS011;5722;42.620;23.374;2023-04-28T22:41:13;8.87;;;4.20;;
11334;SDS011;5722;42.620;23.374;2023-04-28T22:43:58;7.83;;;4.57;;
11334;SDS011;5722;42.620;23.374;2023-04-28T22:46:33;7.93;;;4.83;;
11334;SDS011;5722;42.620;23.374;2023-04-28T22:54:57;11.73;;;4.30;;
11334;SDS011;5722;42.620;23.374;2023-04-28T22:57:31;8.13;;;4.83;;
11334;SDS011;5722;42.620;23.374;2023-04-28T23:00:06;6.03;;;3.90;;
11334;SDS011;5722;42.620;23.374;2023-04-28T23:02:43;8.47;;;4.00;;
11334;SDS011;5722;42.620;23.374;2023-04-28T23:05:23;5.53;;;3.97;;
11334;SDS011;5722;42.620;23.374;2023-04-28T23:08:04;8.20;;;3.90;;
11334;SDS011;5722;42.620;23.374;2023-04-28T23:10:46;8.20;;;3.90;;
11334;SDS011;5722;42.620;23.374;2023-04-28T23:13:20;6.80;;;4.27;;
11334;SDS011;5722;42.620;23.374;2023-04-28T23:15:56;9.20;;;3.97;;
11334;SDS011;5722;42.620;23.374;2023-04-28T23:18:32;5.70;;;3.90;;
11334;SDS011;5722;42.620;23.374;2023-04-28T23:21:19;9.30;;;4.13;;
11334;SDS011;5722;42.620;23.374;2023-04-28T23:24:08;8.80;;;4.67;;
11334;SDS011;5722;42.620;23.374;2023-04-28T23:26:44;10.67;;;4.67;;
11334;SDS011;5722;42.620;23.374;2023-04-28T23:29:17;9.20;;;5.07;;
11334;SDS011;5722;42.620;23.374;2023-04-28T23:31:56;11.37;;;4.60;;
11334;SDS011;5722;42.620;23.374;2023-04-28T23:34:37;10.97;;;4.57;;
11334;SDS011;5722;42.620;23.374;2023-04-28T23:37:10;9.17;;;4.30;;
11334;SDS011;5722;42.620;23.374;2023-04-28T23:39:48;6.40;;;4.27;;
11334;SDS011;5722;42.620;23.374;2023-04-28T23:42:29;7.37;;;5.07;;
11334;SDS011;5722;42.620;23.374;2023-04-28T23:45:08;7.07;;;4.33;;
11334;SDS011;5722;42.620;23.374;2023-04-28T23:47:54;10.97;;;4.40;;
11334;SDS011;5722;42.620;23.374;2023-04-28T23:50:28;8.53;;;4.73;;
11334;SDS011;5722;42.620;23.374;2023-04-28T23:53:22;10.07;;;5.50;;
11334;SDS011;5722;42.620;23.374;2023-04-28T23:56:07;12.70;;;5.43;;
11334;SDS011;5722;42.620;23.374;2023-04-28T23:58:46;16.33;;;5.50;;
